Time;durP1;ratioP1;P1;durP2;ratioP2;P2;SDS_P1;SDS_P2;PMS_P1;PMS_P2;Temp;Humidity;BMP_temperature;BMP_pressure;BME280_temperature;BME280_humidity;BME280_pressure;Samples;Min_cycle;Max_cycle;Signal;HPM_P1;HPM_P2
2023/12/26 00:02:24;;;;;;;16.52;7.30;;;;;;;6.31;100.00;100613.47;5029441;28;20523;-80
2023/12/26 00:04:49;;;;;;;11.35;5.50;;;;;;;6.43;100.00;100614.94;5029593;28;20049;-80
2023/12/26 00:07:15;;;;;;;12.00;5.13;;;;;;;6.45;100.00;100615.94;5029687;28;20036;-81
2023/12/26 00:09:41;;;;;;;10.75;5.75;;;;;;;6.10;100.00;100538.78;5012982;28;20467;-81
2023/12/26 00:12:07;;;;;;;9.73;5.18;;;;;;;6.63;100.00;100606.69;5027284;28;20047;-81
2023/12/26 00:14:32;;;;;;;12.88;5.95;;;;;;;6.61;100.00;100608.28;5029322;28;20041;-81
2023/12/26 00:16:58;;;;;;;13.07;5.93;;;;;;;6.55;100.00;100604.50;5029604;28;20087;-81
2023/12/26 00:19:24;;;;;;;11.88;5.30;;;;;;;6.64;100.00;100621.28;5012920;28;20060;-81
2023/12/26 00:21:50;;;;;;;13.15;6.38;;;;;;;6.60;100.00;100614.22;5012885;28;20033;-82
2023/12/26 00:24:15;;;;;;;16.27;6.40;;;;;;;6.50;100.00;100606.81;5029472;28;20037;-82
2023/12/26 00:26:42;;;;;;;15.50;6.25;;;;;;;6.46;100.00;100603.19;5029512;28;20120;-81
2023/12/26 00:29:08;;;;;;;13.05;6.30;;;;;;;6.06;100.00;100530.88;5012886;28;20029;-82
2023/12/26 00:31:33;;;;;;;13.55;6.28;;;;;;;6.56;100.00;100606.28;5015166;28;20042;-81
2023/12/26 00:33:59;;;;;;;14.10;6.57;;;;;;;6.74;100.00;100614.97;5010632;28;20470;-80
2023/12/26 00:36:24;;;;;;;12.55;5.72;;;;;;;6.70;100.00;100604.47;5010456;28;20037;-80
2023/12/26 00:38:50;;;;;;;14.98;6.57;;;;;;;6.80;100.00;100622.13;5012034;28;20056;-80
2023/12/26 00:41:16;;;;;;;9.93;5.15;;;;;;;6.46;100.00;100584.34;5012272;28;20057;-80
2023/12/26 00:43:42;;;;;;;11.52;6.05;;;;;;;6.48;100.00;100610.97;5011634;28;20026;-81
2023/12/26 00:46:07;;;;;;;11.95;5.72;;;;;;;6.71;100.00;100657.53;5011626;28;20037;-82
2023/12/26 00:48:36;;;;;;;11.35;6.88;;;;;;;6.71;100.00;100642.16;5011410;28;20037;-81
2023/12/26 00:51:02;;;;;;;13.50;6.07;;;;;;;6.78;100.00;100657.09;5011118;28;20045;-81
2023/12/26 00:53:28;;;;;;;16.30;5.50;;;;;;;6.82;100.00;100648.75;5011621;28;20487;-81
2023/12/26 00:55:54;;;;;;;12.65;5.60;;;;;;;6.47;100.00;100587.00;5011611;28;20033;-81
2023/12/26 00:58:19;;;;;;;10.98;5.40;;;;;;;6.54;100.00;100589.91;5011320;28;20063;-81
2023/12/26 01:00:45;;;;;;;11.05;5.47;;;;;;;6.82;100.00;100635.91;5011229;28;20030;-81
2023/12/26 01:03:10;;;;;;;10.65;5.25;;;;;;;6.70;100.00;100623.28;5011267;28;20034;-81
2023/12/26 01:05:36;;;;;;;12.60;5.72;;;;;;;5.85;100.00;100558.69;5009686;28;20073;-80
2023/12/26 01:10:36;;;;;;;12.95;5.72;;;;;;;5.78;100.00;100637.75;5229522;23;20057;-79
2023/12/26 01:13:02;;;;;;;12.55;5.63;;;;;;;5.31;100.00;100590.59;5029583;28;20032;-80
2023/12/26 01:15:28;;;;;;;12.35;5.75;;;;;;;5.78;100.00;100665.94;5031402;28;20033;-80
2023/12/26 01:17:53;;;;;;;13.88;5.72;;;;;;;5.91;100.00;100661.53;5031161;28;20108;-80
2023/12/26 01:20:19;;;;;;;14.57;5.80;;;;;;;5.94;100.00;100641.19;5030984;28;20026;-80
2023/12/26 01:22:44;;;;;;;13.15;5.25;;;;;;;5.85;100.00;100622.75;5031010;28;20403;-80
2023/12/26 01:25:10;;;;;;;14.52;5.65;;;;;;;5.94;100.00;100654.00;5031128;28;20472;-81
2023/12/26 01:27:35;;;;;;;14.52;5.68;;;;;;;5.40;100.00;100569.78;5030543;28;20025;-79
2023/12/26 01:30:02;;;;;;;10.77;5.10;;;;;;;5.78;100.00;100624.03;5030870;28;20057;-80
2023/12/26 01:32:28;;;;;;;13.45;6.03;;;;;;;5.98;100.00;100646.63;5031049;28;20412;-80
2023/12/26 01:34:54;;;;;;;11.02;5.47;;;;;;;6.03;100.00;100640.88;5030891;28;20498;-80
2023/12/26 01:37:20;;;;;;;11.35;5.65;;;;;;;6.10;100.00;100646.44;5030833;28;20041;-80
2023/12/26 01:39:45;;;;;;;12.07;5.45;;;;;;;6.17;100.00;100634.00;5031076;28;20033;-80
2023/12/26 01:42:11;;;;;;;12.57;6.13;;;;;;;6.40;100.00;100656.69;5029580;28;20036;-79
2023/12/26 01:44:38;;;;;;;13.18;6.35;;;;;;;6.31;100.00;100680.13;5030646;28;20132;-79
2023/12/26 01:47:03;;;;;;;11.27;5.60;;;;;;;6.20;100.00;100664.94;5029375;28;20120;-80
2023/12/26 01:49:29;;;;;;;11.27;6.05;;;;;;;6.07;100.00;100666.78;5030589;28;20268;-79
2023/12/26 01:51:58;;;;;;;13.70;5.80;;;;;;;5.58;100.00;100626.34;5030639;28;20096;-80
2023/12/26 01:54:29;;;;;;;14.13;6.82;;;;;;;5.81;100.00;100657.53;5030742;28;20061;-80
2023/12/26 01:56:55;;;;;;;12.00;5.75;;;;;;;5.33;100.00;100570.19;5030716;28;20048;-79
2023/12/26 01:59:21;;;;;;;12.35;5.93;;;;;;;5.44;100.00;100606.69;5012869;28;20080;-80
2023/12/26 02:01:47;;;;;;;13.13;5.70;;;;;;;5.63;100.00;100670.13;5030648;28;20025;-79
2023/12/26 02:04:12;;;;;;;10.32;5.30;;;;;;;5.41;100.00;100667.94;5030748;28;20032;-80
2023/12/26 02:06:39;;;;;;;12.30;5.50;;;;;;;5.38;100.00;100668.63;5029445;28;20030;-80
2023/12/26 02:09:05;;;;;;;11.18;5.95;;;;;;;5.34;100.00;100657.31;5030053;28;20053;-79
2023/12/26 02:11:32;;;;;;;11.30;5.85;;;;;;;5.51;100.00;100678.84;5030609;28;20057;-80
2023/12/26 02:13:57;;;;;;;12.77;5.45;;;;;;;5.58;100.00;100680.13;5030419;28;20084;-80
2023/12/26 02:16:25;;;;;;;15.18;5.78;;;;;;;5.70;100.00;100681.66;5029082;28;20442;-80
2023/12/26 02:18:52;;;;;;;11.30;5.15;;;;;;;5.51;100.00;100654.94;5029097;28;20403;-79
2023/12/26 02:21:18;;;;;;;12.18;6.40;;;;;;;5.71;100.00;100675.69;5030437;28;20029;-80
2023/12/26 02:23:45;;;;;;;13.20;6.28;;;;;;;5.76;100.00;100680.31;5047558;28;20036;-80
2023/12/26 02:26:12;;;;;;;13.65;6.15;;;;;;;5.82;100.00;100679.81;5047952;28;20412;-80
2023/12/26 02:28:39;;;;;;;13.52;5.80;;;;;;;5.46;100.00;100603.44;5047581;28;20037;-80
2023/12/26 02:31:06;;;;;;;13.57;5.90;;;;;;;5.78;100.00;100665.03;5047813;28;20419;-79
2023/12/26 02:33:33;;;;;;;10.90;5.72;;;;;;;5.82;100.00;100670.44;5047817;28;20491;-79
2023/12/26 02:36:00;;;;;;;12.45;5.65;;;;;;;5.88;100.00;100659.69;5013627;28;20496;-79
2023/12/26 02:41:11;;;;;;;14.10;6.28;;;;;;;5.82;100.00;100638.81;5040350;23;20157;-80
2023/12/26 02:43:36;;;;;;;12.68;6.05;;;;;;;5.92;100.00;100663.28;5014341;28;20109;-79
2023/12/26 02:46:02;;;;;;;10.38;5.22;;;;;;;5.88;100.00;100666.47;5014029;28;20044;-79
2023/12/26 02:48:28;;;;;;;12.23;6.28;;;;;;;5.70;100.00;100667.16;5012938;28;20034;-80
2023/12/26 02:50:56;;;;;;;12.80;6.70;;;;;;;5.52;100.00;100641.34;5014042;28;20504;-80
2023/12/26 02:53:22;;;;;;;15.18;5.97;;;;;;;5.72;100.00;100675.81;5012709;28;20496;-80
2023/12/26 02:55:53;;;;;;;10.38;5.63;;;;;;;5.69;100.00;100667.06;5009380;28;20085;-79
2023/12/26 02:58:21;;;;;;;13.40;6.40;;;;;;;5.36;100.00;100649.75;5003411;28;20161;-80
2023/12/26 03:00:47;;;;;;;14.38;7.15;;;;;;;4.88;100.00;100605.00;4994222;28;20404;-80
2023/12/26 03:03:13;;;;;;;10.07;5.68;;;;;;;4.48;100.00;100605.94;5009245;28;20034;-79
2023/12/26 03:05:38;;;;;;;14.55;6.50;;;;;;;4.34;100.00;100645.97;5009220;28;20030;-80
2023/12/26 03:08:04;;;;;;;11.20;5.47;;;;;;;3.68;100.00;100583.78;4994184;28;20026;-79
2023/12/26 03:10:30;;;;;;;11.25;5.88;;;;;;;4.07;100.00;100651.03;4993809;28;20065;-79
2023/12/26 03:12:55;;;;;;;14.27;6.80;;;;;;;4.17;100.00;100660.19;4994066;28;20552;-79
2023/12/26 03:15:21;;;;;;;14.18;6.70;;;;;;;4.29;100.00;100647.34;4994079;28;20507;-79
2023/12/26 03:17:46;;;;;;;11.63;6.40;;;;;;;4.27;100.00;100626.78;4993863;28;20113;-79
2023/12/26 03:20:12;;;;;;;13.75;6.93;;;;;;;4.54;100.00;100662.59;5008943;28;20030;-80
2023/12/26 03:22:39;;;;;;;13.48;6.20;;;;;;;4.66;100.00;100665.03;4993848;28;20456;-79
2023/12/26 03:25:07;;;;;;;13.55;6.35;;;;;;;4.76;100.00;100680.19;4993531;28;20042;-80
2023/12/26 03:27:33;;;;;;;12.75;6.30;;;;;;;4.76;100.00;100659.75;5007758;28;20039;-79
2023/12/26 03:29:58;;;;;;;11.52;6.35;;;;;;;4.79;100.00;100690.59;4993586;28;20091;-79
2023/12/26 03:32:24;;;;;;;15.15;6.10;;;;;;;4.79;100.00;100700.84;5008676;28;20034;-79
2023/12/26 03:34:49;;;;;;;13.10;6.13;;;;;;;4.71;100.00;100699.47;4993522;28;20158;-79
2023/12/26 03:37:15;;;;;;;18.00;9.73;;;;;;;4.75;100.00;100705.66;4993588;28;20038;-80
2023/12/26 03:39:41;;;;;;;16.65;7.80;;;;;;;4.67;100.00;100723.97;4991840;28;20439;-80
2023/12/26 03:42:07;;;;;;;16.20;7.85;;;;;;;4.26;100.00;100711.03;4993479;28;20027;-81
2023/12/26 03:44:32;;;;;;;19.48;8.45;;;;;;;3.76;100.00;100671.09;4993247;28;20034;-80
2023/12/26 03:46:58;;;;;;;18.00;8.35;;;;;;;4.05;100.00;100707.16;4993307;28;20030;-79
2023/12/26 03:49:23;;;;;;;16.15;7.40;;;;;;;4.16;100.00;100714.63;5008197;28;20030;-79
2023/12/26 03:51:49;;;;;;;13.23;5.85;;;;;;;4.31;100.00;100725.00;5007791;28;20063;-80
2023/12/26 03:54:15;;;;;;;15.30;6.65;;;;;;;4.11;100.00;100667.44;4993223;28;20500;-80
2023/12/26 03:56:40;;;;;;;13.50;6.28;;;;;;;4.61;100.00;100738.00;4993390;28;20462;-79
2023/12/26 03:59:07;;;;;;;14.35;7.78;;;;;;;4.28;100.00;100664.34;4993525;28;20038;-80
2023/12/26 04:01:33;;;;;;;13.15;6.30;;;;;;;4.69;100.00;100749.63;4993185;28;20484;-79
2023/12/26 04:03:59;;;;;;;11.80;6.28;;;;;;;4.59;100.00;100737.91;4993253;28;20033;-80
2023/12/26 04:06:25;;;;;;;11.55;5.82;;;;;;;4.49;100.00;100715.97;5007412;28;20041;-80
2023/12/26 04:08:50;;;;;;;13.48;6.07;;;;;;;4.29;100.00;100661.00;4992471;28;20053;-80
2023/12/26 04:11:16;;;;;;;12.48;5.75;;;;;;;4.42;100.00;100706.13;5019579;28;20459;-79
2023/12/26 04:13:41;;;;;;;13.85;7.72;;;;;;;4.47;100.00;100729.44;5012263;28;20032;-79
2023/12/26 04:16:07;;;;;;;16.98;6.13;;;;;;;4.38;100.00;100738.25;5011008;28;20087;-79
2023/12/26 04:18:33;;;;;;;15.73;6.43;;;;;;;3.96;100.00;100655.47;5010770;28;20092;-80
2023/12/26 04:20:59;;;;;;;10.57;5.85;;;;;;;4.56;100.00;100741.94;5012176;28;20030;-79
2023/12/26 04:23:25;;;;;;;12.75;6.57;;;;;;;4.73;100.00;100756.72;5009782;28;20048;-80
2023/12/26 04:25:51;;;;;;;12.32;6.40;;;;;;;4.79;100.00;100759.66;5011937;28;20044;-79
2023/12/26 04:28:16;;;;;;;14.48;5.60;;;;;;;4.62;100.00;100761.16;5010420;28;20111;-80
2023/12/26 04:30:42;;;;;;;10.43;6.18;;;;;;;4.52;100.00;100758.75;5010164;28;20049;-79
2023/12/26 04:33:09;;;;;;;14.75;6.75;;;;;;;4.54;100.00;100744.41;5011967;28;20033;-80
2023/12/26 04:35:35;;;;;;;13.02;6.20;;;;;;;4.68;100.00;100776.88;4996259;28;20042;-79
2023/12/26 04:38:01;;;;;;;11.45;6.55;;;;;;;4.58;100.00;100769.38;5006253;28;20030;-79
2023/12/26 04:40:26;;;;;;;11.25;6.70;;;;;;;4.40;100.00;100770.72;5009850;28;20543;-80
2023/12/26 04:42:52;;;;;;;10.05;5.97;;;;;;;4.33;100.00;100770.31;5011700;28;20664;-80
2023/12/26 04:45:18;;;;;;;12.10;7.40;;;;;;;4.46;100.00;100781.34;5011769;28;20040;-80
2023/12/26 04:47:44;;;;;;;10.00;6.72;;;;;;;4.43;100.00;100760.72;5011640;28;20033;-80
2023/12/26 04:50:09;;;;;;;13.02;6.65;;;;;;;4.61;100.00;100784.03;5011545;28;20037;-80
2023/12/26 04:52:35;;;;;;;11.93;6.20;;;;;;;4.58;100.00;100771.94;5009553;28;20400;-79
2023/12/26 04:55:01;;;;;;;13.75;6.88;;;;;;;4.62;100.00;100790.94;5011573;28;20079;-80
2023/12/26 04:57:27;;;;;;;29.92;16.42;;;;;;;4.42;100.00;100774.28;5011667;28;20041;-80
2023/12/26 04:59:52;;;;;;;25.58;12.85;;;;;;;4.47;100.00;100778.03;5011374;28;20027;-80
2023/12/26 05:02:18;;;;;;;18.73;10.57;;;;;;;4.35;100.00;100781.53;5010319;28;20038;-81
2023/12/26 05:04:43;;;;;;;19.77;9.32;;;;;;;4.29;100.00;100782.81;5009646;28;20124;-79
2023/12/26 05:07:09;;;;;;;48.42;25.48;;;;;;;4.27;100.00;100785.22;5009746;28;20026;-79
2023/12/26 05:09:35;;;;;;;23.13;13.77;;;;;;;4.21;100.00;100784.81;5009897;28;20033;-79
2023/12/26 05:12:01;;;;;;;28.02;16.08;;;;;;;4.12;100.00;100779.97;5009552;28;20415;-81
2023/12/26 05:14:27;;;;;;;13.55;8.75;;;;;;;4.07;100.00;100777.91;5009702;28;20035;-80
2023/12/26 05:16:52;;;;;;;13.95;8.07;;;;;;;4.00;100.00;100792.81;5010991;28;20455;-83
2023/12/26 05:19:18;;;;;;;15.57;8.02;;;;;;;4.07;100.00;100811.13;5009903;28;20116;-79
2023/12/26 05:21:43;;;;;;;15.68;8.20;;;;;;;4.01;100.00;100809.91;5024630;28;20492;-78
2023/12/26 05:24:09;;;;;;;17.20;9.48;;;;;;;3.96;100.00;100803.63;5010693;28;20033;-80
2023/12/26 05:26:44;;;;;;;16.27;9.13;;;;;;;3.93;100.00;100789.75;4990916;28;20104;-81
2023/12/26 05:29:10;;;;;;;19.55;9.02;;;;;;;4.09;100.00;100804.44;4989329;28;20056;-80
2023/12/26 05:31:37;;;;;;;18.70;10.15;;;;;;;4.16;100.00;100796.41;5008434;28;20042;-78
2023/12/26 05:34:05;;;;;;;18.38;10.15;;;;;;;3.97;100.00;100818.13;5008364;28;20038;-79
2023/12/26 05:36:31;;;;;;;17.42;11.20;;;;;;;4.00;100.00;100817.47;4992037;28;20072;-79
2023/12/26 05:38:57;;;;;;;22.45;10.20;;;;;;;3.95;100.00;100822.28;5008402;28;20799;-79
2023/12/26 05:41:23;;;;;;;19.00;10.23;;;;;;;4.09;100.00;100829.97;5008465;28;20132;-79
2023/12/26 05:43:49;;;;;;;15.93;9.23;;;;;;;4.01;100.00;100825.25;5008598;28;20033;-79
2023/12/26 05:46:14;;;;;;;20.98;10.18;;;;;;;3.95;100.00;100832.50;5008596;28;20037;-78
2023/12/26 05:48:43;;;;;;;26.00;12.00;;;;;;;3.86;100.00;100811.41;4992068;28;20459;-78
2023/12/26 05:51:08;;;;;;;25.00;11.77;;;;;;;3.88;100.00;100804.75;5008493;28;20038;-78
2023/12/26 05:53:34;;;;;;;25.52;11.57;;;;;;;4.05;100.00;100827.22;5008504;28;20034;-79
2023/12/26 05:55:59;;;;;;;20.50;10.75;;;;;;;4.07;100.00;100811.13;4991917;28;20074;-80
2023/12/26 05:58:25;;;;;;;25.83;12.18;;;;;;;3.83;100.00;100813.75;5010447;28;20045;-78
2023/12/26 06:00:52;;;;;;;29.80;12.15;;;;;;;3.78;100.00;100830.44;5010712;28;20025;-78
2023/12/26 06:03:17;;;;;;;21.35;11.55;;;;;;;3.54;100.00;100817.72;5010481;28;20112;-78
2023/12/26 06:05:43;;;;;;;18.92;10.63;;;;;;;3.13;100.00;100754.38;5009305;28;20117;-79
2023/12/26 06:08:08;;;;;;;19.60;10.77;;;;;;;3.52;100.00;100830.34;5010979;28;20050;-79
2023/12/26 06:10:34;;;;;;;24.42;12.38;;;;;;;3.49;100.00;100826.69;5009461;28;20080;-79
2023/12/26 06:12:59;;;;;;;31.48;16.13;;;;;;;3.59;100.00;100841.00;5010831;28;20088;-79
2023/12/26 06:15:26;;;;;;;30.98;17.33;;;;;;;3.42;100.00;100819.41;5013142;28;20396;-79
2023/12/26 06:17:52;;;;;;;24.60;12.35;;;;;;;3.54;100.00;100848.34;5014481;28;20030;-78
2023/12/26 06:20:21;;;;;;;23.77;12.07;;;;;;;3.27;100.00;100820.06;5014446;28;20496;-79
2023/12/26 06:22:47;;;;;;;21.05;11.48;;;;;;;3.54;100.00;100848.34;5014605;28;20026;-78
2023/12/26 06:25:12;;;;;;;20.60;10.98;;;;;;;3.02;100.00;100754.50;5014438;28;20499;-78
2023/12/26 06:27:38;;;;;;;27.50;11.65;;;;;;;3.62;100.00;100842.09;5014044;28;20038;-78
2023/12/26 06:30:04;;;;;;;20.63;11.38;;;;;;;3.70;100.00;100850.28;5028641;28;20125;-79
2023/12/26 06:32:30;;;;;;;22.70;11.85;;;;;;;3.64;100.00;100857.53;5012906;28;20018;-78
2023/12/26 06:34:55;;;;;;;27.25;13.32;;;;;;;2.95;100.00;100711.50;5013104;28;20030;-78
2023/12/26 06:37:21;;;;;;;27.13;14.07;;;;;;;3.78;100.00;100854.28;5014368;28;20083;-78
2023/12/26 06:39:46;;;;;;;29.77;14.85;;;;;;;3.78;100.00;100838.97;5014368;28;20054;-80
2023/12/26 06:42:12;;;;;;;34.58;17.08;;;;;;;3.87;100.00;100846.38;5012884;28;20030;-79
2023/12/26 06:44:37;;;;;;;33.70;17.95;;;;;;;3.96;100.00;100852.16;5014017;28;20596;-78
2023/12/26 06:47:03;;;;;;;31.98;16.75;;;;;;;3.93;100.00;100848.50;5013837;28;20042;-78
2023/12/26 06:49:29;;;;;;;29.25;15.93;;;;;;;3.68;100.00;100841.66;5012914;28;20117;-78
2023/12/26 06:51:54;;;;;;;28.42;15.85;;;;;;;3.64;100.00;100835.44;5012893;28;20037;-78
2023/12/26 06:54:20;;;;;;;28.33;17.40;;;;;;;3.78;100.00;100856.84;5014074;28;20038;-78
2023/12/26 06:56:45;;;;;;;28.23;14.07;;;;;;;3.72;100.00;100829.19;5013815;28;20029;-78
2023/12/26 06:59:11;;;;;;;19.73;12.13;;;;;;;3.88;100.00;100846.47;5013883;28;20698;-79
2023/12/26 07:01:36;;;;;;;17.95;10.43;;;;;;;3.96;100.00;100848.69;5013735;28;20528;-78
2023/12/26 07:04:02;;;;;;;16.95;10.48;;;;;;;3.96;100.00;100843.59;5013641;28;20053;-79
2023/12/26 07:06:27;;;;;;;17.30;11.77;;;;;;;4.08;100.00;100849.53;5013903;28;20038;-80
2023/12/26 07:08:53;;;;;;;15.48;9.20;;;;;;;4.26;100.00;100872.94;5013456;28;20105;-79
2023/12/26 07:11:18;;;;;;;18.98;9.70;;;;;;;4.24;100.00;100845.47;5028872;28;20029;-79
2023/12/26 07:13:44;;;;;;;17.17;9.93;;;;;;;4.41;100.00;100838.97;5012294;28;20029;-79
2023/12/26 07:16:09;;;;;;;18.30;9.23;;;;;;;4.61;100.00;100858.19;5013435;28;20022;-78
2023/12/26 07:18:35;;;;;;;17.77;9.50;;;;;;;4.78;100.00;100856.78;5012087;28;20030;-78
2023/12/26 07:21:00;;;;;;;21.10;9.90;;;;;;;4.48;100.00;100772.13;5012232;28;20500;-78
2023/12/26 07:23:27;;;;;;;14.38;9.00;;;;;;;5.12;100.00;100858.97;5013425;28;20030;-78
2023/12/26 07:25:53;;;;;;;19.92;8.93;;;;;;;4.84;100.00;100789.00;5012861;28;20076;-79
2023/12/26 07:28:18;;;;;;;18.67;9.20;;;;;;;5.34;100.00;100861.25;5013621;28;20026;-79
2023/12/26 07:30:44;;;;;;;16.10;9.13;;;;;;;5.39;100.00;100859.00;5013049;28;20377;-79
2023/12/26 07:33:10;;;;;;;15.45;8.40;;;;;;;5.61;100.00;100867.25;5013102;28;20029;-79
2023/12/26 07:35:37;;;;;;;18.45;9.40;;;;;;;5.76;100.00;100877.59;5013379;28;20038;-78
2023/12/26 07:38:04;;;;;;;17.48;8.55;;;;;;;5.89;100.00;100879.22;5013267;28;20029;-78
2023/12/26 07:40:31;;;;;;;14.95;8.18;;;;;;;5.22;100.00;100746.19;5013116;28;20516;-78
2023/12/26 07:42:57;;;;;;;14.48;8.18;;;;;;;6.06;100.00;100874.31;5012874;28;20559;-78
2023/12/26 07:45:24;;;;;;;18.05;8.93;;;;;;;5.77;100.00;100799.94;5011626;28;20041;-80
2023/12/26 07:48:10;;;;;;;20.83;8.90;;;;;;;6.27;100.00;100854.25;5030260;28;20049;-79
2023/12/26 07:50:36;;;;;;;17.98;8.48;;;;;;;6.37;100.00;100847.97;5030208;28;20124;-78
2023/12/26 07:53:02;;;;;;;11.57;7.30;;;;;;;6.16;100.00;100797.19;5030554;28;20041;-79
2023/12/26 07:55:29;;;;;;;15.93;8.30;;;;;;;6.33;100.00;100808.47;5013637;28;20030;-78
2023/12/26 07:57:54;;;;;;;16.52;9.10;;;;;;;6.78;100.00;100862.38;5030202;28;20042;-78
2023/12/26 08:00:20;;;;;;;13.80;8.02;;;;;;;6.60;100.00;100809.19;5029980;28;20044;-78
2023/12/26 08:02:45;;;;;;;17.58;8.63;;;;;;;7.04;100.00;100869.03;5029954;28;20424;-78
2023/12/26 08:05:11;;;;;;;15.13;8.95;;;;;;;7.02;100.00;100847.50;5030189;28;20049;-78
2023/12/26 08:07:37;;;;;;;13.55;8.35;;;;;;;7.12;100.00;100846.34;5029943;28;20041;-79
2023/12/26 08:10:02;;;;;;;18.30;9.32;;;;;;;7.30;100.00;100864.47;5029729;28;20029;-79
2023/12/26 08:12:28;;;;;;;13.70;8.23;;;;;;;7.32;100.00;100856.88;5029841;28;20573;-79
2023/12/26 08:14:53;;;;;;;19.75;8.65;;;;;;;7.41;100.00;100857.38;5029810;28;20033;-79
2023/12/26 08:17:19;;;;;;;12.63;7.43;;;;;;;7.49;100.00;100861.25;5029893;28;20091;-79
2023/12/26 08:19:44;;;;;;;15.10;8.15;;;;;;;7.56;100.00;100865.03;5016586;28;20050;-79
2023/12/26 08:22:10;;;;;;;13.35;7.32;;;;;;;7.58;100.00;100864.31;5012413;28;20062;-79
2023/12/26 08:24:35;;;;;;;17.40;11.68;;;;;;;7.66;100.00;100863.88;5012347;28;20453;-78
2023/12/26 08:27:01;;;;;;;17.65;8.73;;;;;;;7.80;100.00;100862.06;5011977;28;20030;-79
2023/12/26 08:29:26;;;;;;;15.57;8.35;;;;;;;7.89;100.00;100871.16;5011976;28;20072;-78
2023/12/26 08:31:53;;;;;;;13.63;7.38;;;;;;;7.82;100.00;100845.91;5012051;28;20559;-78
2023/12/26 08:34:19;;;;;;;15.15;8.02;;;;;;;7.73;100.00;100806.88;5010948;28;20385;-79
2023/12/26 08:36:45;;;;;;;13.18;8.32;;;;;;;8.13;100.00;100867.25;5011920;28;20044;-79
2023/12/26 08:39:10;;;;;;;14.35;8.98;;;;;;;7.82;100.00;100794.50;5010628;28;20133;-79
2023/12/26 08:41:36;;;;;;;15.60;7.85;;;;;;;8.29;100.00;100846.69;5010455;28;20045;-79
2023/12/26 08:44:01;;;;;;;28.92;17.60;;;;;;;8.31;100.00;100851.91;5010717;28;20030;-79
2023/12/26 08:46:27;;;;;;;30.17;16.67;;;;;;;8.43;100.00;100849.97;5012004;28;20033;-79
2023/12/26 08:48:52;;;;;;;30.98;13.85;;;;;;;8.54;100.00;100856.56;5011821;28;20061;-80
2023/12/26 08:51:19;;;;;;;17.50;9.45;;;;;;;8.62;100.00;100844.09;5026170;28;20038;-79
2023/12/26 08:53:46;;;;;;;27.13;12.23;;;;;;;8.70;100.00;100841.94;5011637;28;20065;-78
2023/12/26 08:56:11;;;;;;;13.15;7.45;;;;;;;8.83;100.00;100843.41;5011685;28;20037;-79
2023/12/26 08:58:37;;;;;;;13.10;6.50;;;;;;;8.37;100.00;100754.44;5011779;28;20034;-79
2023/12/26 09:01:02;;;;;;;15.88;6.80;;;;;;;8.97;100.00;100838.94;5010472;28;20032;-79
2023/12/26 09:03:28;;;;;;;14.48;7.57;;;;;;;8.49;100.00;100719.09;5011777;28;20480;-78
2023/12/26 09:05:54;;;;;;;11.70;6.63;;;;;;;9.37;100.00;100835.72;5011760;28;20782;-78
2023/12/26 09:08:20;;;;;;;14.73;7.65;;;;;;;9.50;100.00;100830.34;5011481;28;20030;-78
2023/12/26 09:10:45;;;;;;;11.25;6.57;;;;;;;9.64;100.00;100823.25;5011229;28;20520;-79
2023/12/26 09:13:11;;;;;;;12.13;6.38;;;;;;;9.71;100.00;100808.97;5011386;28;20548;-79
2023/12/26 09:15:36;;;;;;;13.43;6.25;;;;;;;9.94;100.00;100822.88;5011509;28;20029;-78
2023/12/26 09:18:02;;;;;;;13.52;6.75;;;;;;;10.08;100.00;100825.22;5011301;28;20104;-78
2023/12/26 09:20:28;;;;;;;13.98;7.07;;;;;;;9.90;100.00;100759.09;5011459;28;20072;-80
2023/12/26 09:22:53;;;;;;;17.05;7.60;;;;;;;9.88;100.00;100745.25;5011220;28;20412;-80
2023/12/26 09:25:20;;;;;;;14.65;6.50;;;;;;;10.45;100.00;100803.63;5011146;28;20034;-80
2023/12/26 09:27:46;;;;;;;10.48;7.40;;;;;;;10.46;100.00;100792.50;5011166;28;20500;-79
2023/12/26 09:30:12;;;;;;;13.00;7.10;;;;;;;10.66;100.00;100803.66;5011231;28;20064;-79
2023/12/26 09:32:37;;;;;;;13.07;7.53;;;;;;;10.79;100.00;100794.72;5011470;28;20033;-79
2023/12/26 09:35:03;;;;;;;12.65;6.45;;;;;;;10.93;100.00;100795.28;5009866;28;20030;-79
2023/12/26 09:37:29;;;;;;;13.65;7.05;;;;;;;11.04;100.00;100783.69;5011009;28;20026;-78
2023/12/26 09:39:54;;;;;;;15.63;7.60;;;;;;;11.23;100.00;100794.78;5010874;28;20057;-78
2023/12/26 09:42:24;;;;;;;17.05;7.40;;;;;;;11.38;100.00;100785.00;5009868;28;20484;-78
2023/12/26 09:44:50;;;;;;;15.30;7.57;;;;;;;11.45;100.00;100776.69;5011036;28;20032;-78
2023/12/26 09:47:16;;;;;;;25.25;12.20;;;;;;;11.64;100.00;100779.97;5011272;28;20030;-79
2023/12/26 09:49:43;;;;;;;18.15;8.40;;;;;;;11.75;100.00;100772.59;5011475;28;20117;-79
2023/12/26 09:52:09;;;;;;;18.08;8.13;;;;;;;11.89;100.00;100770.53;5010886;28;20480;-79
2023/12/26 09:54:38;;;;;;;14.85;8.75;;;;;;;12.03;100.00;100768.47;5025881;28;20033;-79
2023/12/26 09:57:09;;;;;;;17.75;8.68;;;;;;;12.12;100.00;100748.06;5011115;28;20022;-78
2023/12/26 09:59:37;;;;;;;15.63;6.93;;;;;;;11.95;100.00;100717.28;5010950;28;20381;-78
2023/12/26 10:02:04;;;;;;;11.60;6.57;;;;;;;12.23;100.00;100746.75;5009165;28;20475;-79
2023/12/26 10:04:30;;;;;;;16.42;6.68;;;;;;;12.36;100.00;100755.81;5010776;28;20026;-78
2023/12/26 10:06:56;;;;;;;15.55;6.28;;;;;;;12.46;100.00;100752.72;5000638;28;20129;-78
2023/12/26 10:09:21;;;;;;;14.00;6.47;;;;;;;12.50;100.00;100735.56;4990917;28;20029;-78
2023/12/26 10:11:47;;;;;;;12.45;6.65;;;;;;;12.70;100.00;100741.41;4991308;28;20031;-79
2023/12/26 10:14:27;;;;;;;11.80;6.38;;;;;;;12.66;100.00;100718.84;4991173;28;20030;-79
2023/12/26 10:16:58;;;;;;;16.50;5.35;;;;;;;12.89;100.00;100742.88;4991113;28;20561;-79
2023/12/26 10:19:24;;;;;;;13.38;5.97;;;;;;;12.94;100.00;100730.94;4990757;28;20045;-80
2023/12/26 10:21:50;;;;;;;14.73;6.20;;;;;;;13.06;100.00;100722.66;5005864;28;20103;-80
2023/12/26 10:24:20;;;;;;;10.63;5.47;;;;;;;13.19;100.00;100717.88;4991097;28;20178;-80
2023/12/26 10:26:46;;;;;;;;;;;;;;;13.24;100.00;100705.91;4991485;28;20030;-80
2023/12/26 10:29:12;;;;;;;13.35;5.38;;;;;;;13.30;100.00;100703.50;4990806;28;19924;-79
2023/12/26 10:31:39;;;;;;;15.35;5.60;;;;;;;13.29;100.00;100677.53;4990990;28;20065;-79
2023/12/26 10:34:19;;;;;;;9.82;5.22;;;;;;;13.53;100.00;100703.31;4993195;28;20046;-80
2023/12/26 10:36:49;;;;;;;11.95;5.43;;;;;;;13.59;100.00;100694.03;4991832;28;20034;-80
2023/12/26 10:39:15;;;;;;;14.57;6.53;;;;;;;13.72;100.00;100689.16;4990797;28;20062;-81
2023/12/26 10:41:48;;;;;;;15.43;5.30;;;;;;;13.51;100.00;100627.19;4990856;28;20085;-80
2023/12/26 10:44:16;;;;;;;14.45;5.90;;;;;;;13.96;100.00;100681.16;4990453;28;20420;-79
2023/12/26 10:46:42;;;;;;;18.15;6.28;;;;;;;13.94;100.00;100666.38;4990386;28;20108;-79
2023/12/26 10:49:23;;;;;;;15.75;5.93;;;;;;;14.13;100.00;100679.00;4990617;28;20164;-80
2023/12/26 10:51:51;;;;;;;10.70;4.78;;;;;;;13.85;100.00;100623.78;5005717;28;20037;-79
2023/12/26 10:54:20;;;;;;;10.85;4.93;;;;;;;14.26;100.00;100667.22;5008242;28;20022;-80
2023/12/26 10:56:48;;;;;;;13.73;5.30;;;;;;;14.01;100.00;100627.63;5008086;28;20028;-77
2023/12/26 13:51:25;;;;;;;6.40;2.13;;;;;;;16.96;80.26;100536.03;5010202;28;20032;-84
2023/12/26 13:53:51;;;;;;;12.15;2.97;;;;;;;16.84;81.09;100532.41;5008365;28;20045;-85
2023/12/26 13:56:19;;;;;;;8.00;2.65;;;;;;;16.83;80.47;100534.09;5008252;28;20531;-85
2023/12/26 13:58:44;;;;;;;10.18;2.17;;;;;;;16.74;81.27;100523.59;5010207;28;20034;-85
2023/12/26 14:01:10;;;;;;;10.55;2.65;;;;;;;16.46;82.95;100481.50;5009467;28;20053;-85
2023/12/26 14:03:35;;;;;;;6.10;2.33;;;;;;;16.60;83.42;100505.16;5010398;28;20022;-84
2023/12/26 14:06:01;;;;;;;11.07;4.07;;;;;;;16.59;84.34;100525.13;5010046;28;20028;-85
2023/12/26 14:08:26;;;;;;;21.45;10.25;;;;;;;16.61;84.66;100538.16;5010288;28;20030;-85